Lake Harbor, Florida
Current Conditions -  °F | °C
As of 11:15 AM on Thursday 18 Dec 2014 (Local Time) from KOBE Reporting Station
Clear Clear  
Wind Chill: 64°   Ceiling: Unl
Heat Index: 64°   Visibility: 10mi
Dew Point: 45°   Wind: 6mph
Humidity: 49%   Direction: 320°NW
Pressure: 30.19"   Gusts: NA
Location:  26.7°N, 80.81°W
Report Text: KOBE 181615Z AUTO 32005KT 10SM CLR 18/07 A3019 RMK AO2
Loading
Personal Weather Stations






























Interactive Weather Map New forecast layout! Learn more

10-Day Weather Forecast

Advertisements
Track Severe Weather on mobile